Time;durP1;ratioP1;P1;durP2;ratioP2;P2;SDS_P1;SDS_P2;PMS_P1;PMS_P2;Temp;Humidity;BMP_temperature;BMP_pressure;BME280_temperature;BME280_humidity;BME280_pressure;Samples;Min_cycle;Max_cycle;Signal;HPM_P1;HPM_P2
2023/07/21 00:00:48;;;;;;;;;2.50;2.00;;;;;27.27;46.88;100712.19;2078241;28;46555;-58
2023/07/21 00:01:48;;;;;;;;;3.00;2.75;;;;;27.25;47.59;100714.19;2078689;28;46417;-56
2023/07/21 00:02:51;;;;;;;;;2.50;2.50;;;;;27.23;47.12;100712.63;2087250;28;46190;-57
2023/07/21 00:03:52;;;;;;;;;7.00;7.00;;;;;27.23;47.54;100712.63;2089032;28;46656;-57
2023/07/21 00:04:53;;;;;;;;;10.50;8.75;;;;;27.23;47.14;100708.03;2096398;28;46427;-57
2023/07/21 00:05:54;;;;;;;;;5.60;4.20;;;;;27.24;47.28;100709.75;2094808;28;46770;-59
2023/07/21 00:06:54;;;;;;;;;2.20;2.20;;;;;27.26;47.50;100707.75;2096055;28;46903;-57
2023/07/21 00:07:55;;;;;;;;;5.50;5.50;;;;;27.30;46.93;100710.19;2104375;28;46219;-56
2023/07/21 00:08:55;;;;;;;;;3.50;2.75;;;;;27.32;46.47;100709.06;2104887;28;46885;-58
2023/07/21 00:09:55;;;;;;;;;4.25;4.25;;;;;27.29;46.48;100706.59;2104881;28;45710;-58
2023/07/21 00:10:57;;;;;;;;;7.00;7.00;;;;;27.28;47.07;100705.75;2104724;28;46388;-57
2023/07/21 00:11:57;;;;;;;;;2.40;2.40;;;;;27.26;46.92;100702.28;2104119;28;46263;-58
2023/07/21 00:12:57;;;;;;;;;3.25;2.75;;;;;27.25;46.49;100697.00;2104258;28;46653;-58
2023/07/21 00:13:58;;;;;;;;;2.00;2.00;;;;;27.24;46.84;100698.84;2104625;28;46197;-59
2023/07/21 00:14:58;;;;;;;;;3.00;3.00;;;;;27.24;46.99;100701.59;2104786;28;46747;-59
2023/07/21 00:15:58;;;;;;;;;1.00;1.00;;;;;27.22;46.78;100700.88;2104748;28;46558;-57
2023/07/21 00:17:01;;;;;;;;;2.25;1.00;;;;;27.20;47.03;100694.72;2104534;28;46168;-57
2023/07/21 00:18:01;;;;;;;;;2.80;2.00;;;;;27.18;47.03;100701.28;2105439;28;46508;-58
2023/07/21 00:19:02;;;;;;;;;3.25;1.50;;;;;27.17;47.21;100702.28;2104675;28;46332;-58
2023/07/21 00:20:11;;;;;;;;;3.25;1.25;;;;;27.19;47.35;100700.28;2104900;28;46156;-58
2023/07/21 00:21:11;;;;;;;;;2.00;2.00;;;;;27.17;46.95;100700.41;2104344;28;46979;-59
2023/07/21 00:22:12;;;;;;;;;1.25;1.25;;;;;27.16;47.17;100697.84;2104848;28;46374;-57
2023/07/21 00:23:12;;;;;;;;;1.00;1.00;;;;;27.15;46.93;100704.28;2104632;28;45897;-58
2023/07/21 00:24:13;;;;;;;;;3.00;1.50;;;;;27.14;47.60;100691.66;2104646;28;46836;-57
2023/07/21 00:25:13;;;;;;;;;2.25;2.00;;;;;27.15;46.99;100688.78;2095849;28;46274;-58
2023/07/21 00:26:15;;;;;;;;;1.20;1.20;;;;;27.15;46.65;100693.38;2095862;28;46951;-58
2023/07/21 00:27:17;;;;;;;;;1.60;1.60;;;;;27.15;46.66;100693.38;2104892;28;46886;-57
2023/07/21 00:28:20;;;;;;;;;2.00;1.60;;;;;27.14;46.60;100692.53;2104445;28;46864;-58
2023/07/21 00:29:20;;;;;;;;;4.80;1.00;;;;;27.14;47.07;100686.22;2104861;28;46910;-58
2023/07/21 00:30:22;;;;;;;;;1.00;1.00;;;;;27.15;46.83;100690.66;2104779;28;46471;-56
2023/07/21 00:31:22;;;;;;;;;1.50;1.50;;;;;27.14;46.67;100684.34;2104733;28;46571;-58
2023/07/21 00:32:22;;;;;;;;;4.25;2.00;;;;;27.15;46.44;100686.06;2104935;28;46414;-58
2023/07/21 00:33:25;;;;;;;;;0.00;0.00;;;;;27.14;46.33;100680.78;2095330;28;45175;-58
2023/07/21 00:34:25;;;;;;;;;1.00;1.00;;;;;27.13;46.49;100677.19;2096010;28;46754;-56
2023/07/21 00:35:26;;;;;;;;;2.00;1.00;;;;;27.12;46.80;100678.19;2104727;28;46715;-58
2023/07/21 00:36:26;;;;;;;;;1.00;1.00;;;;;27.10;46.52;100679.34;2104287;28;46804;-57
2023/07/21 00:37:27;;;;;;;;;0.00;0.00;;;;;27.10;46.42;100682.91;2102399;28;46461;-56
2023/07/21 00:38:27;;;;;;;;;1.25;1.25;;;;;27.08;46.66;100675.91;2097139;28;46280;-57
2023/07/21 00:39:28;;;;;;;;;1.00;1.00;;;;;27.09;46.48;100688.50;2104175;28;46693;-58
2023/07/21 00:40:30;;;;;;;;;2.00;1.00;;;;;27.04;46.07;100683.47;2104670;28;46218;-59
2023/07/21 00:41:30;;;;;;;;;1.20;1.00;;;;;27.03;46.08;100692.63;2104479;28;46377;-59
2023/07/21 00:42:34;;;;;;;;;0.75;0.75;;;;;27.05;46.54;100692.50;2104544;28;46320;-57
2023/07/21 00:43:34;;;;;;;;;1.00;1.00;;;;;27.01;46.03;100694.66;2096290;28;46492;-57
2023/07/21 00:44:36;;;;;;;;;1.00;1.00;;;;;26.97;45.97;100687.72;2101069;28;46135;-57
2023/07/21 00:45:37;;;;;;;;;0.00;0.00;;;;;26.98;46.47;100695.75;2105864;28;46860;-58
2023/07/21 00:46:38;;;;;;;;;1.00;1.00;;;;;27.01;46.18;100699.19;2106049;28;47348;-56
2023/07/21 00:47:38;;;;;;;;;2.00;1.00;;;;;26.97;46.63;100704.06;2106021;28;46673;-58
2023/07/21 00:48:39;;;;;;;;;1.50;1.50;;;;;26.96;46.87;100699.63;2105383;28;46246;-58
2023/07/21 00:49:39;;;;;;;;;0.00;0.00;;;;;26.95;46.67;100700.63;2097350;28;46295;-59
2023/07/21 00:50:49;;;;;;;;;2.00;1.00;;;;;26.95;46.43;100706.94;2100701;28;46811;-56
2023/07/21 00:51:50;;;;;;;;;2.20;2.20;;;;;26.96;46.90;100713.25;2106147;28;46278;-56
2023/07/21 00:52:51;;;;;;;;;1.75;1.75;;;;;26.94;46.90;100705.22;2105898;28;46310;-59
2023/07/21 00:53:51;;;;;;;;;0.00;0.00;;;;;26.96;46.50;100700.50;2106112;27;46412;-59
2023/07/21 00:54:52;;;;;;;;;1.00;1.00;;;;;26.96;46.50;100700.50;2106201;28;46401;-58
2023/07/21 00:55:53;;;;;;;;;1.40;1.40;;;;;26.96;47.10;100702.34;2105678;27;46977;-58
2023/07/21 00:56:53;;;;;;;;;2.25;1.75;;;;;26.97;46.84;100704.94;2106202;28;46585;-59
2023/07/21 00:57:54;;;;;;;;;1.25;1.00;;;;;26.95;46.54;100701.50;2106245;28;46761;-56
2023/07/21 00:58:54;;;;;;;;;1.75;1.75;;;;;26.95;47.04;100698.78;2097119;28;46317;-59
2023/07/21 00:59:55;;;;;;;;;1.00;1.00;;;;;26.94;46.99;100693.47;2096977;28;46517;-58
2023/07/21 01:00:55;;;;;;;;;0.75;0.00;;;;;26.90;46.47;100692.00;2105737;28;46466;-58
2023/07/21 01:01:56;;;;;;;;;1.00;0.75;;;;;26.90;46.80;100702.91;2106025;28;46746;-59
2023/07/21 01:02:57;;;;;;;;;0.00;0.00;;;;;26.87;46.69;100687.69;2096624;28;46474;-58
2023/07/21 01:03:58;;;;;;;;;0.00;0.00;;;;;26.87;47.02;100692.28;2096979;28;46393;-58
2023/07/21 01:05:01;;;;;;;;;1.00;1.00;;;;;26.86;47.15;100688.69;2106037;28;46711;-56
2023/07/21 01:06:02;;;;;;;;;3.00;1.60;;;;;26.86;47.49;100691.44;2105994;28;46698;-58
2023/07/21 01:07:05;;;;;;;;;1.00;1.00;;;;;26.85;47.27;100677.94;2105895;28;46714;-58
2023/07/21 01:08:07;;;;;;;;;0.60;0.60;;;;;26.84;47.85;100685.25;2106020;28;46611;-59
2023/07/21 01:09:08;;;;;;;;;0.00;0.00;;;;;26.85;47.23;100686.13;2105618;28;45988;-58
2023/07/21 01:10:11;;;;;;;;;1.00;1.00;;;;;26.83;47.72;100686.25;2105967;28;46525;-59
2023/07/21 01:11:12;;;;;;;;;0.60;0.60;;;;;26.84;47.36;100687.13;2105797;28;46334;-59
2023/07/21 01:12:13;;;;;;;;;2.00;2.00;;;;;26.84;47.75;100695.28;2106019;28;46539;-57
2023/07/21 01:13:16;;;;;;;;;0.50;0.50;;;;;26.83;47.44;100686.25;2096378;28;46445;-59
2023/07/21 01:14:17;;;;;;;;;1.00;1.00;;;;;26.81;47.61;100691.00;2096612;28;46331;-57
2023/07/21 01:15:17;;;;;;;;;1.00;1.00;;;;;26.81;48.68;100690.13;2106034;27;46351;-58
2023/07/21 01:16:20;;;;;;;;;1.00;1.00;;;;;26.81;48.70;100685.53;2105591;28;46159;-59
2023/07/21 01:17:21;;;;;;;;;0.00;0.00;;;;;26.79;49.38;100684.78;2105063;28;46412;-59
2023/07/21 01:18:24;;;;;;;;;0.80;0.80;;;;;26.82;49.14;100686.41;2105262;28;46490;-58
2023/07/21 01:19:28;;;;;;;;;0.40;0.00;;;;;26.81;48.60;100691.00;2105576;28;47309;-59
2023/07/21 01:20:29;;;;;;;;;0.40;0.40;;;;;26.80;49.18;100694.69;2098809;28;46494;-57
2023/07/21 01:22:00;;;;;;;;;1.20;1.00;;;;;26.83;49.82;100691.72;2098576;28;46718;-57
2023/07/21 01:23:27;;;;;;;;;0.80;0.80;;;;;26.83;50.06;100694.44;2079536;28;46537;-58
2023/07/21 01:24:36;;;;;;;;;0.00;0.00;;;;;26.80;50.12;100685.66;2079936;28;46353;-58
2023/07/21 01:25:39;;;;;;;;;2.00;2.00;;;;;26.78;49.73;100693.09;2079155;28;46256;-57
2023/07/21 01:26:42;;;;;;;;;0.50;0.50;;;;;26.77;49.60;100692.25;2079799;28;46601;-58
2023/07/21 01:27:46;;;;;;;;;1.00;1.00;;;;;26.75;49.81;100696.97;2080048;28;46503;-57
2023/07/21 01:28:47;;;;;;;;;0.25;0.25;;;;;26.72;49.38;100699.13;2079285;28;46845;-57
2023/07/21 01:29:50;;;;;;;;;1.80;1.80;;;;;26.71;50.46;100700.97;2079581;28;46652;-58
2023/07/21 01:30:53;;;;;;;;;0.20;0.20;;;;;26.68;50.97;100702.13;2079514;28;46163;-57
2023/07/21 01:31:54;;;;;;;;;0.80;0.80;;;;;26.65;50.78;100694.22;2079900;28;46276;-58
2023/07/21 01:32:55;;;;;;;;;2.00;2.00;;;;;26.63;51.16;100695.34;2080747;28;46465;-57
2023/07/21 01:33:58;;;;;;;;;2.00;0.25;;;;;26.61;50.73;100691.91;2079419;28;46621;-56
2023/07/21 01:34:59;;;;;;;;;1.25;0.25;;;;;26.60;50.38;100698.34;2075430;28;46254;-59
2023/07/21 01:36:01;;;;;;;;;2.00;1.00;;;;;26.60;51.44;100698.34;2079648;28;46997;-57
2023/07/21 01:37:03;;;;;;;;;1.00;1.00;;;;;26.59;51.29;100693.91;2079291;28;46397;-60
2023/07/21 01:38:04;;;;;;;;;1.00;1.00;;;;;26.57;51.15;100691.31;2079799;28;46722;-59
2023/07/21 01:39:06;;;;;;;;;1.00;1.00;;;;;26.57;51.18;100701.34;2079275;28;46558;-59
2023/07/21 01:40:09;;;;;;;;;2.80;2.80;;;;;26.55;51.88;100704.22;2079716;28;46564;-59
2023/07/21 01:41:12;;;;;;;;;1.00;1.00;;;;;26.55;52.83;100700.59;2079467;28;46715;-58
2023/07/21 01:42:13;;;;;;;;;0.50;0.50;;;;;26.53;53.18;100700.75;2079719;28;46977;-59
2023/07/21 01:43:15;;;;;;;;;0.50;0.50;;;;;26.54;53.10;100701.59;2085422;28;46688;-60
2023/07/21 01:44:15;;;;;;;;;3.80;1.20;;;;;26.53;53.46;100703.47;2086767;28;46223;-58
2023/07/21 01:45:15;;;;;;;;;1.75;1.25;;;;;26.51;53.42;100697.31;2079601;28;46462;-55
2023/07/21 01:46:17;;;;;;;;;1.75;1.75;;;;;26.51;53.44;100700.03;2079659;28;45888;-56
2023/07/21 01:47:17;;;;;;;;;2.00;2.00;;;;;26.52;54.67;100690.84;2079653;28;46423;-57
2023/07/21 01:48:17;;;;;;;;;1.00;1.00;;;;;26.51;54.68;100689.13;2079445;28;46560;-56
2023/07/21 01:49:18;;;;;;;;;1.00;1.00;;;;;26.50;55.89;100689.28;2071257;28;46318;-57
2023/07/21 01:50:19;;;;;;;;;2.00;2.00;;;;;26.45;56.06;100688.84;2071566;28;46315;-59
2023/07/21 01:51:21;;;;;;;;;1.00;1.00;;;;;26.44;56.44;100687.97;2087990;28;46160;-59
2023/07/21 01:52:22;;;;;;;;;2.40;2.40;;;;;26.40;56.81;100679.19;2084208;28;46479;-57
2023/07/21 01:53:28;;;;;;;;;2.20;2.20;;;;;26.39;57.48;100684.78;2079900;28;46840;-57
2023/07/21 01:54:48;;;;;;;;;3.80;1.60;;;;;26.36;56.61;100685.06;2079049;28;46837;-57
2023/07/21 01:56:09;;;;;;;;;1.60;1.00;;;;;26.32;57.02;100683.59;2084949;28;47013;-59
2023/07/21 01:57:17;;;;;;;;;2.00;2.00;;;;;26.29;56.79;100684.69;2084411;28;46907;-57
2023/07/21 01:58:19;;;;;;;;;1.00;1.00;;;;;26.27;57.38;100678.53;2079442;28;46399;-57
2023/07/21 01:59:21;;;;;;;;;1.20;0.80;;;;;26.28;57.21;100682.09;2086139;28;46794;-57
2023/07/21 02:00:25;;;;;;;;;1.00;1.00;;;;;26.31;57.95;100668.25;2090645;28;46924;-56
2023/07/21 02:01:26;;;;;;;;;3.00;2.40;;;;;26.27;58.58;100667.66;2106349;28;46410;-57
2023/07/21 02:02:28;;;;;;;;;2.00;1.40;;;;;26.25;58.52;100666.06;2105849;28;46206;-56
2023/07/21 02:03:28;;;;;;;;;3.00;2.00;;;;;26.21;58.44;100659.19;2105186;28;46386;-58
2023/07/21 02:04:29;;;;;;;;;1.00;1.00;;;;;26.18;58.54;100659.44;2105655;28;46305;-57
2023/07/21 02:05:29;;;;;;;;;2.00;2.00;;;;;26.16;58.28;100659.56;2105740;28;46265;-57
2023/07/21 02:06:30;;;;;;;;;1.50;1.50;;;;;26.11;58.13;100659.97;2105565;28;46276;-58
2023/07/21 02:07:31;;;;;;;;;2.80;2.00;;;;;26.06;59.30;100667.69;2096692;28;46366;-56
2023/07/21 02:08:32;;;;;;;;;2.00;2.00;;;;;26.03;59.90;100659.78;2088498;28;46736;-56
2023/07/21 02:09:32;;;;;;;;;1.50;1.00;;;;;26.02;59.39;100658.06;2096573;28;46455;-58
2023/07/21 02:10:32;;;;;;;;;2.00;2.00;;;;;26.02;59.96;100662.63;2105419;28;45972;-58
2023/07/21 02:11:33;;;;;;;;;3.00;3.00;;;;;25.99;59.57;100661.03;2105580;28;46387;-56
2023/07/21 02:12:33;;;;;;;;;3.00;3.00;;;;;25.99;59.97;100669.22;2097078;28;46310;-58
2023/07/21 02:13:34;;;;;;;;;2.00;2.00;;;;;25.98;60.05;100661.19;2100027;28;46928;-57
2023/07/21 02:14:34;;;;;;;;;2.25;2.00;;;;;25.96;60.59;100665.91;2105477;28;46633;-57
2023/07/21 02:15:34;;;;;;;;;2.00;2.00;;;;;25.97;60.74;100667.63;2105106;28;46408;-56
2023/07/21 02:16:37;;;;;;;;;1.00;1.00;;;;;25.94;61.25;100663.31;2087672;28;46803;-55
2023/07/21 02:17:38;;;;;;;;;4.40;2.40;;;;;25.93;61.03;100661.59;2087673;28;46561;-57
2023/07/21 02:18:39;;;;;;;;;2.00;2.00;;;;;25.94;60.84;100668.75;2105485;28;46810;-57
2023/07/21 02:19:40;;;;;;;;;2.60;2.60;;;;;25.92;61.42;100661.69;2086776;28;46705;-55
2023/07/21 02:20:40;;;;;;;;;2.00;2.00;;;;;25.92;60.83;100664.41;2087726;28;46764;-57
2023/07/21 02:21:41;;;;;;;;;2.50;2.50;;;;;25.91;61.49;100663.56;2100974;28;45527;-57
2023/07/21 02:22:43;;;;;;;;;2.00;2.00;;;;;25.91;60.54;100666.28;2105886;28;46633;-57
2023/07/21 02:23:43;;;;;;;;;3.20;1.00;;;;;25.90;60.48;100658.25;2105164;28;47008;-56
2023/07/21 02:24:43;;;;;;;;;1.00;1.00;;;;;25.89;60.05;100657.41;2105335;28;46989;-58
2023/07/21 02:25:44;;;;;;;;;3.00;3.00;;;;;25.89;59.93;100654.69;2105422;28;46271;-57
2023/07/21 02:26:45;;;;;;;;;1.50;1.50;;;;;25.89;59.49;100657.41;2096491;28;46396;-56
2023/07/21 02:27:45;;;;;;;;;1.00;1.00;;;;;25.89;59.51;100656.53;2096272;28;46867;-57
2023/07/21 02:28:45;;;;;;;;;1.00;1.00;;;;;25.87;59.98;100670.28;2105457;28;46488;-55
2023/07/21 02:29:48;;;;;;;;;1.50;1.50;;;;;25.88;59.77;100660.25;2096278;28;46792;-56
2023/07/21 02:31:02;;;;;;;;;1.80;1.80;;;;;25.86;59.95;100662.25;2096585;28;46943;-57
2023/07/21 02:32:02;;;;;;;;;1.25;1.25;;;;;25.85;60.44;100665.97;2105497;28;46829;-58
2023/07/21 02:33:03;;;;;;;;;1.00;1.00;;;;;25.85;60.09;100669.53;2105617;28;46766;-57
2023/07/21 02:34:05;;;;;;;;;1.00;1.00;;;;;25.86;59.69;100665.81;2105350;28;46541;-57
2023/07/21 02:35:06;;;;;;;;;1.00;1.00;;;;;25.86;59.81;100657.66;2105627;28;46746;-58
2023/07/21 02:36:06;;;;;;;;;1.00;1.00;;;;;25.86;59.49;100659.53;2105302;28;47042;-57
2023/07/21 02:37:07;;;;;;;;;1.00;1.00;;;;;25.86;58.71;100659.53;2096472;28;46278;-57
2023/07/21 02:38:07;;;;;;;;;1.50;1.00;;;;;25.84;57.92;100662.38;2096168;28;46569;-59
2023/07/21 02:39:07;;;;;;;;;1.00;1.00;;;;;25.84;57.74;100656.94;2105508;28;46202;-59
2023/07/21 02:40:09;;;;;;;;;2.50;1.00;;;;;25.85;58.29;100666.81;2105244;28;47066;-59
2023/07/21 02:41:10;;;;;;;;;0.00;0.00;;;;;25.86;57.90;100659.53;2105076;28;46785;-58
2023/07/21 02:42:10;;;;;;;;;0.75;0.75;;;;;25.87;58.17;100664.84;2105373;28;46040;-59
2023/07/21 02:43:12;;;;;;;;;2.00;2.00;;;;;25.84;58.11;100670.53;2096332;28;46361;-59
2023/07/21 02:44:12;;;;;;;;;1.60;1.20;;;;;25.85;57.75;100669.53;2095381;28;46423;-59
2023/07/21 02:45:13;;;;;;;;;0.25;0.25;;;;;25.84;58.57;100662.38;2086801;28;46368;-58
2023/07/21 02:46:14;;;;;;;;;0.50;0.50;;;;;25.84;58.39;100669.69;2087539;28;46644;-59
2023/07/21 02:47:16;;;;;;;;;1.60;1.60;;;;;25.83;59.04;100662.53;2105188;28;46876;-57
2023/07/21 02:48:17;;;;;;;;;1.00;1.00;;;;;25.83;57.82;100671.53;2096143;28;46387;-56
2023/07/21 02:49:18;;;;;;;;;1.00;1.00;;;;;25.83;57.78;100671.53;2096489;28;46885;-59
2023/07/21 02:50:19;;;;;;;;;0.67;0.67;;;;;25.84;58.10;100669.69;2105120;28;46437;-58
2023/07/21 02:51:19;;;;;;;;;2.00;2.00;;;;;25.82;57.58;100664.38;2105310;28;46846;-59
2023/07/21 02:52:19;;;;;;;;;1.00;1.00;;;;;25.80;57.96;100661.78;2104999;28;46716;-59
2023/07/21 02:53:20;;;;;;;;;0.67;0.67;;;;;25.81;57.83;100665.38;2105371;28;46803;-59
2023/07/21 02:54:20;;;;;;;;;0.00;0.00;;;;;25.79;57.28;100667.34;2104927;28;46453;-58
2023/07/21 02:55:21;;;;;;;;;0.00;0.00;;;;;25.80;57.23;100669.09;2105130;28;45667;-57
2023/07/21 02:56:21;;;;;;;;;1.25;1.00;;;;;25.80;57.30;100667.22;2105399;28;46697;-59
2023/07/21 02:57:22;;;;;;;;;1.00;1.00;;;;;25.80;57.58;100667.22;2095859;28;45547;-59
2023/07/21 02:58:26;;;;;;;;;0.60;0.60;;;;;25.79;57.42;100665.50;2096270;28;46781;-57
2023/07/21 02:59:27;;;;;;;;;0.25;0.25;;;;;25.78;57.25;100662.91;2105178;28;46561;-59
2023/07/21 03:00:28;;;;;;;;;0.25;0.25;;;;;25.78;57.08;100660.19;2104901;28;46764;-57
2023/07/21 03:01:29;;;;;;;;;0.00;0.00;;;;;25.80;56.95;100666.38;2105282;28;46763;-59
2023/07/21 03:02:33;;;;;;;;;0.75;0.75;;;;;25.80;56.86;100660.94;2105630;28;46894;-58
2023/07/21 03:03:34;;;;;;;;;0.75;0.75;;;;;25.80;57.28;100661.78;2105103;28;46261;-59
2023/07/21 03:04:37;;;;;;;;;0.67;0.67;;;;;25.79;57.46;100662.78;2105167;28;46258;-58
2023/07/21 03:05:37;;;;;;;;;1.00;1.00;;;;;25.80;57.67;100669.94;2105001;28;46739;-58
2023/07/21 03:06:38;;;;;;;;;0.00;0.00;;;;;25.78;56.98;100660.19;2104297;27;45594;-58
2023/07/21 03:07:39;;;;;;;;;1.00;1.00;;;;;25.75;57.29;100671.31;2095758;28;46077;-59
2023/07/21 03:08:39;;;;;;;;;2.00;2.00;;;;;25.72;56.70;100668.88;2096449;28;46752;-58
2023/07/21 03:09:40;;;;;;;;;1.00;1.00;;;;;25.69;56.93;100666.44;2104954;28;46485;-57
2023/07/21 03:10:40;;;;;;;;;1.00;1.00;;;;;25.67;56.71;100671.09;2105190;28;46563;-58
2023/07/21 03:11:41;;;;;;;;;1.75;1.75;;;;;25.66;57.39;100670.22;2104983;28;46148;-58
2023/07/21 03:12:41;;;;;;;;;1.00;1.00;;;;;25.65;57.17;100667.63;2105487;28;46948;-58
2023/07/21 03:13:41;;;;;;;;;0.00;0.00;;;;;25.64;57.62;100665.91;2104921;28;46626;-58
2023/07/21 03:14:42;;;;;;;;;0.25;0.25;;;;;25.62;57.50;100663.31;2105116;28;46555;-59
2023/07/21 03:15:43;;;;;;;;;1.33;1.33;;;;;25.62;57.82;100667.91;2105345;28;46601;-58
2023/07/21 03:16:43;;;;;;;;;0.75;0.75;;;;;25.61;57.39;100667.03;2105145;28;46874;-58
2023/07/21 03:17:43;;;;;;;;;0.00;0.00;;;;;25.61;57.57;100664.31;2105359;28;45584;-59
2023/07/21 03:18:44;;;;;;;;;1.33;1.33;;;;;25.62;57.42;100659.75;2105251;28;46456;-58
2023/07/21 03:19:44;;;;;;;;;1.00;1.00;;;;;25.62;58.19;100663.31;2104664;28;46204;-58
2023/07/21 03:20:44;;;;;;;;;2.00;1.33;;;;;25.64;58.04;100657.75;2105234;28;46226;-58
2023/07/21 03:21:45;;;;;;;;;2.00;2.00;;;;;25.64;57.97;100664.06;2105356;28;46210;-58
2023/07/21 03:22:45;;;;;;;;;2.33;2.00;;;;;25.63;57.63;100665.06;2104891;28;46678;-59
2023/07/21 03:23:46;;;;;;;;;1.00;1.00;;;;;25.62;57.71;100659.75;2105286;28;46614;-58
2023/07/21 03:24:46;;;;;;;;;3.00;2.33;;;;;25.61;57.28;100661.59;2105141;28;46327;-57
2023/07/21 03:25:49;;;;;;;;;2.00;2.00;;;;;25.61;57.74;100655.31;2105045;28;46066;-58
2023/07/21 03:26:50;;;;;;;;;2.40;2.00;;;;;25.59;57.29;100666.31;2105032;28;46437;-58
2023/07/21 03:27:51;;;;;;;;;1.20;1.20;;;;;25.58;57.33;100661.00;2105184;28;46690;-58
2023/07/21 03:28:52;;;;;;;;;1.00;1.00;;;;;25.56;57.84;100668.44;2105005;28;46277;-59
2023/07/21 03:29:53;;;;;;;;;1.00;1.00;;;;;25.55;57.48;100664.88;2105139;28;46852;-58
2023/07/21 03:31:00;;;;;;;;;1.00;1.00;;;;;25.55;57.12;100667.56;2105144;28;46353;-60
2023/07/21 03:32:00;;;;;;;;;1.20;1.20;;;;;25.52;57.33;100663.25;2104763;28;47164;-60
2023/07/21 03:33:01;;;;;;;;;2.00;2.00;;;;;25.51;57.39;100660.66;2105007;28;46462;-59
2023/07/21 03:34:02;;;;;;;;;1.00;1.00;;;;;25.49;57.58;100671.66;2105117;28;46788;-59
2023/07/21 03:35:04;;;;;;;;;2.00;2.00;;;;;25.48;57.22;100658.22;2104861;28;46308;-58
2023/07/21 03:36:05;;;;;;;;;0.00;0.00;;;;;25.48;57.76;100669.06;2105450;28;46146;-58
2023/07/21 03:37:06;;;;;;;;;1.00;1.00;;;;;25.48;57.69;100660.94;2105112;28;46513;-58
2023/07/21 03:38:06;;;;;;;;;0.67;0.67;;;;;25.48;57.58;100661.78;2104943;28;46753;-57
2023/07/21 03:39:07;;;;;;;;;2.00;2.00;;;;;25.47;57.24;100659.22;2105049;28;46397;-57
2023/07/21 03:40:09;;;;;;;;;1.00;1.00;;;;;25.47;57.86;100664.63;2105156;28;46806;-57
2023/07/21 03:41:10;;;;;;;;;1.00;1.00;;;;;25.47;57.43;100664.63;2104544;28;46829;-57
2023/07/21 03:42:10;;;;;;;;;1.00;1.00;;;;;25.46;58.00;100663.78;2105145;28;46523;-57
2023/07/21 03:43:11;;;;;;;;;0.67;0.67;;;;;25.44;57.69;100665.78;2105073;28;47028;-59
2023/07/21 03:44:13;;;;;;;;;0.00;0.00;;;;;25.46;57.77;100660.19;2104746;28;46074;-57
2023/07/21 03:45:13;;;;;;;;;1.00;1.00;;;;;25.44;58.43;100662.19;2096116;28;45712;-57
2023/07/21 03:46:13;;;;;;;;;3.50;3.50;;;;;25.45;58.13;100661.19;2096330;28;46435;-57
2023/07/21 03:47:17;;;;;;;;;0.00;0.00;;;;;25.43;58.23;100655.91;2104800;28;46254;-59
2023/07/21 03:48:18;;;;;;;;;1.75;1.75;;;;;25.43;58.03;100660.47;2104805;28;46901;-55
2023/07/21 03:49:18;;;;;;;;;1.00;0.00;;;;;25.44;58.31;100664.91;2105088;28;46636;-59
2023/07/21 03:50:18;;;;;;;;;1.00;1.00;;;;;25.43;58.36;100663.19;2104721;28;46597;-58
2023/07/21 03:51:18;;;;;;;;;1.00;1.00;;;;;25.43;58.37;100661.31;2104987;28;46235;-55
2023/07/21 03:52:19;;;;;;;;;1.50;1.50;;;;;25.43;59.27;100663.19;2105027;28;46571;-57
2023/07/21 03:53:19;;;;;;;;;0.67;0.67;;;;;25.41;58.71;100668.75;2104647;28;46527;-58
2023/07/21 03:54:19;;;;;;;;;1.67;1.00;;;;;25.39;58.82;100665.28;2105239;28;46521;-58
2023/07/21 03:55:20;;;;;;;;;2.25;2.25;;;;;25.39;59.11;100662.56;2104602;28;46251;-57
2023/07/21 03:56:21;;;;;;;;;2.75;2.75;;;;;25.39;59.29;100668.00;2105107;28;46832;-57
2023/07/21 03:57:22;;;;;;;;;2.00;2.00;;;;;25.38;59.28;100668.13;2104739;28;46487;-58
2023/07/21 03:58:23;;;;;;;;;2.00;2.00;;;;;25.37;59.26;100672.69;2105151;28;46502;-56
2023/07/21 03:59:23;;;;;;;;;1.00;1.00;;;;;25.37;59.66;100671.84;2104989;28;46754;-58
2023/07/21 04:00:23;;;;;;;;;2.50;2.50;;;;;25.38;59.89;100679.00;2104810;28;46319;-56
2023/07/21 04:01:24;;;;;;;;;3.50;3.50;;;;;25.35;60.17;100682.84;2104496;28;46583;-59
2023/07/21 04:02:25;;;;;;;;;3.75;3.75;;;;;25.34;60.52;100672.09;2104854;28;45524;-58
2023/07/21 04:03:26;;;;;;;;;2.20;1.20;;;;;25.33;60.30;100671.25;2104430;28;46697;-58
2023/07/21 04:04:26;;;;;;;;;3.00;1.25;;;;;25.34;60.54;100669.38;2104907;28;46383;-60
2023/07/21 04:05:27;;;;;;;;;0.00;0.00;;;;;25.36;60.08;100683.69;2104984;28;46164;-60
2023/07/21 04:06:27;;;;;;;;;1.00;1.00;;;;;25.35;60.67;100671.97;2104560;27;46909;-58
2023/07/21 04:07:27;;;;;;;;;1.75;1.75;;;;;25.38;60.18;100679.00;2104951;28;46271;-58
2023/07/21 04:08:28;;;;;;;;;1.67;1.67;;;;;25.38;60.45;100673.56;2104977;28;46263;-58
2023/07/21 04:09:28;;;;;;;;;1.00;1.00;;;;;25.39;60.12;100675.28;2104740;28;46492;-59
2023/07/21 04:10:29;;;;;;;;;1.00;1.00;;;;;25.37;60.34;100675.41;2105069;28;46355;-59
2023/07/21 04:11:29;;;;;;;;;2.00;2.00;;;;;25.38;59.83;100674.41;2104942;28;46485;-59
2023/07/21 04:12:29;;;;;;;;;2.00;1.00;;;;;25.37;59.69;100675.41;2104815;28;46361;-57
2023/07/21 04:13:30;;;;;;;;;2.00;2.00;;;;;25.37;59.68;100674.56;2104874;28;46246;-55
2023/07/21 04:14:30;;;;;;;;;2.67;2.00;;;;;25.39;60.02;100675.28;2105017;28;46515;-60
2023/07/21 04:15:30;;;;;;;;;1.00;1.00;;;;;25.37;59.53;100669.13;2104359;28;46352;-57
2023/07/21 04:16:31;;;;;;;;;0.33;0.33;;;;;25.34;59.66;100667.53;2104887;28;46818;-57
2023/07/21 04:17:31;;;;;;;;;1.00;0.67;;;;;25.33;59.56;100673.97;2104630;28;46237;-57
2023/07/21 04:18:31;;;;;;;;;1.25;1.00;;;;;25.32;59.46;100680.38;2105636;27;46479;-57
2023/07/21 04:19:32;;;;;;;;;1.75;1.75;;;;;25.33;59.80;100683.97;2096653;28;46710;-58
2023/07/21 04:20:32;;;;;;;;;1.00;1.00;;;;;25.32;60.01;100679.53;2088948;28;46357;-57
2023/07/21 04:21:33;;;;;;;;;1.33;1.33;;;;;25.30;59.97;100676.94;2097444;28;46598;-57
2023/07/21 04:22:33;;;;;;;;;1.00;1.00;;;;;25.32;59.45;100679.53;2105924;28;46271;-59
2023/07/21 04:23:34;;;;;;;;;1.00;1.00;;;;;25.29;59.89;100683.38;2106292;28;46174;-58
2023/07/21 04:24:35;;;;;;;;;2.00;2.00;;;;;25.27;60.15;100682.59;2106087;28;46177;-56
2023/07/21 04:25:35;;;;;;;;;3.00;3.00;;;;;25.28;60.19;100678.03;2106030;28;46852;-57
2023/07/21 04:26:36;;;;;;;;;1.00;1.00;;;;;25.28;59.97;100678.91;2106340;28;46565;-57
2023/07/21 04:27:37;;;;;;;;;2.00;2.00;;;;;25.30;60.47;100676.09;2106544;28;46471;-57
2023/07/21 04:28:38;;;;;;;;;1.33;1.33;;;;;25.29;60.61;100677.94;2106368;28;46180;-57
2023/07/21 04:29:38;;;;;;;;;2.00;2.00;;;;;25.28;60.91;100678.03;2105872;28;46420;-55
2023/07/21 04:30:38;;;;;;;;;2.00;2.00;;;;;25.26;60.96;100680.88;2106033;28;46229;-58
2023/07/21 04:31:39;;;;;;;;;2.00;2.00;;;;;25.26;61.26;100682.75;2106182;28;46602;-55
2023/07/21 04:32:39;;;;;;;;;2.00;2.00;;;;;25.26;61.08;100688.16;2105770;28;46531;-57
2023/07/21 04:33:41;;;;;;;;;1.67;1.67;;;;;25.26;61.19;100688.16;2106276;28;46517;-58
2023/07/21 04:34:41;;;;;;;;;1.60;1.60;;;;;25.27;61.04;100693.47;2106268;28;47100;-57
2023/07/21 04:35:48;;;;;;;;;1.75;1.75;;;;;25.28;60.91;100681.63;2097201;28;46506;-58
2023/07/21 04:36:48;;;;;;;;;0.50;0.50;;;;;25.27;61.10;100682.59;2097516;28;46876;-59
2023/07/21 04:37:48;;;;;;;;;1.00;1.00;;;;;25.28;61.46;100680.75;2096792;28;45838;-57
2023/07/21 04:38:49;;;;;;;;;2.00;2.00;;;;;25.29;61.69;100679.78;2105917;28;46782;-56
2023/07/21 04:39:49;;;;;;;;;3.00;3.00;;;;;25.29;61.32;100677.06;2106095;28;46068;-58
2023/07/21 04:40:49;;;;;;;;;2.00;2.00;;;;;25.28;61.77;100678.03;2105891;28;46032;-58
2023/07/21 04:41:50;;;;;;;;;3.00;3.00;;;;;25.29;61.45;100680.66;2106203;28;46002;-56
2023/07/21 04:42:50;;;;;;;;;0.00;0.00;;;;;25.29;60.77;100686.09;2105899;27;46252;-58
2023/07/21 04:43:51;;;;;;;;;2.00;2.00;;;;;25.28;60.34;100687.03;2106196;28;46152;-56
2023/07/21 04:44:51;;;;;;;;;2.00;2.00;;;;;25.28;60.91;100686.19;2106006;28;46689;-59
2023/07/21 04:45:54;;;;;;;;;2.00;2.00;;;;;25.30;60.79;100684.22;2097014;28;46236;-56